sensor_id;sensor_type;location;lat;lon;timestamp;pressure;altitude;pressure_sealevel;temperature;humidity
82293;BME280;71892;14.836;105.234;2023-07-30T02:55:59;98927.34;;;27.80;53.43
82293;BME280;71892;14.836;105.234;2023-07-30T02:58:26;98935.13;;;27.86;50.77
82293;BME280;71892;14.836;105.234;2023-07-30T05:02:46;98883.28;;;33.54;57.67
82293;BME280;71892;14.836;105.234;2023-07-30T05:05:13;98876.16;;;33.99;56.54
82293;BME280;71892;14.836;105.234;2023-07-30T05:07:39;98866.34;;;33.68;55.63
82293;BME280;71892;14.836;105.234;2023-07-30T05:10:06;98874.56;;;32.99;58.13
82293;BME280;71892;14.836;105.234;2023-07-30T05:12:36;98879.34;;;32.16;61.67
82293;BME280;71892;14.836;105.234;2023-07-30T05:15:03;98914.44;;;30.94;66.07
82293;BME280;71892;14.836;105.234;2023-07-30T05:17:29;98909.31;;;29.64;72.97
82293;BME280;71892;14.836;105.234;2023-07-30T05:19:56;98864.47;;;28.94;73.06
82293;BME280;71892;14.836;105.234;2023-07-30T05:22:22;98880.91;;;28.81;73.29
82293;BME280;71892;14.836;105.234;2023-07-30T05:24:51;98831.03;;;28.78;74.71
82293;BME280;71892;14.836;105.234;2023-07-30T05:27:17;98870.75;;;28.83;75.23
82293;BME280;71892;14.836;105.234;2023-07-30T05:29:43;98842.69;;;28.92;76.72
82293;BME280;71892;14.836;105.234;2023-07-30T05:32:10;98857.06;;;28.83;76.41
82293;BME280;71892;14.836;105.234;2023-07-30T05:34:36;98829.81;;;28.82;78.31
82293;BME280;71892;14.836;105.234;2023-07-30T05:37:03;98844.13;;;28.85;77.54
82293;BME280;71892;14.836;105.234;2023-07-30T05:39:29;98853.19;;;28.99;77.22
82293;BME280;71892;14.836;105.234;2023-07-30T05:41:56;98842.13;;;29.24;75.88
82293;BME280;71892;14.836;105.234;2023-07-30T05:44:22;98818.69;;;29.44;73.57
82293;BME280;71892;14.836;105.234;2023-07-30T05:46:49;98821.09;;;29.48;73.59
82293;BME280;71892;14.836;105.234;2023-07-30T05:49:15;98817.91;;;29.65;73.19
82293;BME280;71892;14.836;105.234;2023-07-30T05:51:41;98817.44;;;29.83;71.57
82293;BME280;71892;14.836;105.234;2023-07-30T05:54:08;98812.13;;;29.92;72.89
82293;BME280;71892;14.836;105.234;2023-07-30T05:56:34;98803.06;;;30.03;71.98
82293;BME280;71892;14.836;105.234;2023-07-30T05:59:01;98796.56;;;30.04;71.36
82293;BME280;71892;14.836;105.234;2023-07-30T06:01:27;98802.28;;;29.90;72.66
82293;BME280;71892;14.836;105.234;2023-07-30T06:03:54;98786.97;;;29.98;72.48
82293;BME280;71892;14.836;105.234;2023-07-30T06:06:20;98796.22;;;30.08;73.20
82293;BME280;71892;14.836;105.234;2023-07-30T06:08:53;98794.22;;;30.10;74.62
82293;BME280;71892;14.836;105.234;2023-07-30T06:11:20;98784.75;;;30.03;73.06
82293;BME280;71892;14.836;105.234;2023-07-30T06:13:46;98787.09;;;30.08;74.19
82293;BME280;71892;14.836;105.234;2023-07-30T06:16:13;98774.91;;;30.01;76.75
82293;BME280;71892;14.836;105.234;2023-07-30T06:18:40;98790.97;;;29.94;75.34
82293;BME280;71892;14.836;105.234;2023-07-30T06:21:06;98786.44;;;29.82;75.50
82293;BME280;71892;14.836;105.234;2023-07-30T06:23:33;98778.56;;;29.77;75.23
82293;BME280;71892;14.836;105.234;2023-07-30T06:25:59;98773.53;;;29.49;73.36
82293;BME280;71892;14.836;105.234;2023-07-30T06:28:26;98781.72;;;29.38;73.53
82293;BME280;71892;14.836;105.234;2023-07-30T06:30:52;98779.16;;;29.24;73.75
82293;BME280;71892;14.836;105.234;2023-07-30T06:33:19;98770.78;;;29.14;73.46
82293;BME280;71892;14.836;105.234;2023-07-30T06:35:45;98775.72;;;29.09;73.17
82293;BME280;71892;14.836;105.234;2023-07-30T06:38:12;98784.78;;;29.10;73.83
82293;BME280;71892;14.836;105.234;2023-07-30T06:40:38;98777.09;;;29.15;73.59
82293;BME280;71892;14.836;105.234;2023-07-30T06:43:04;98768.16;;;29.13;72.90
82293;BME280;71892;14.836;105.234;2023-07-30T06:45:31;98767.16;;;29.14;72.83
82293;BME280;71892;14.836;105.234;2023-07-30T06:47:57;98759.66;;;29.05;74.11
82293;BME280;71892;14.836;105.234;2023-07-30T06:50:24;98741.69;;;28.89;74.01
82293;BME280;71892;14.836;105.234;2023-07-30T06:52:50;98732.97;;;28.72;75.21
82293;BME280;71892;14.836;105.234;2023-07-30T06:55:17;98726.63;;;28.71;76.61
82293;BME280;71892;14.836;105.234;2023-07-30T06:57:43;98715.22;;;28.77;75.93
82293;BME280;71892;14.836;105.234;2023-07-30T07:00:10;98718.59;;;28.81;75.97
82293;BME280;71892;14.836;105.234;2023-07-30T07:02:37;98735.16;;;28.79;75.53
82293;BME280;71892;14.836;105.234;2023-07-30T07:05:03;98742.59;;;28.77;76.71
82293;BME280;71892;14.836;105.234;2023-07-30T07:07:31;98731.63;;;28.53;77.84
82293;BME280;71892;14.836;105.234;2023-07-30T07:09:57;98723.53;;;28.16;78.82
82293;BME280;71892;14.836;105.234;2023-07-30T07:12:23;98708.38;;;27.61;80.39
82293;BME280;71892;14.836;105.234;2023-07-30T07:14:50;98696.44;;;27.37;81.83
82293;BME280;71892;14.836;105.234;2023-07-30T07:17:16;98700.59;;;27.30;82.14
82293;BME280;71892;14.836;105.234;2023-07-30T07:19:43;98701.16;;;27.35;81.23
82293;BME280;71892;14.836;105.234;2023-07-30T07:22:09;98673.72;;;27.36;80.42
82293;BME280;71892;14.836;105.234;2023-07-30T07:24:35;98690.56;;;27.55;80.38
82293;BME280;71892;14.836;105.234;2023-07-30T07:27:02;98686.88;;;27.69;79.74
82293;BME280;71892;14.836;105.234;2023-07-30T07:29:28;98683.13;;;27.83;80.02
82293;BME280;71892;14.836;105.234;2023-07-30T07:31:55;98687.69;;;27.95;80.14
82293;BME280;71892;14.836;105.234;2023-07-30T07:34:21;98680.69;;;28.16;79.72
82293;BME280;71892;14.836;105.234;2023-07-30T07:36:48;98680.72;;;28.27;78.34
82293;BME280;71892;14.836;105.234;2023-07-30T07:39:14;98680.25;;;28.46;78.53
82293;BME280;71892;14.836;105.234;2023-07-30T07:41:41;98660.16;;;28.58;78.53
82293;BME280;71892;14.836;105.234;2023-07-30T07:44:07;98667.13;;;28.62;77.42
82293;BME280;71892;14.836;105.234;2023-07-30T07:46:34;98661.75;;;28.73;76.99
82293;BME280;71892;14.836;105.234;2023-07-30T07:49:00;98639.66;;;28.87;76.35
82293;BME280;71892;14.836;105.234;2023-07-30T07:51:26;98659.31;;;28.92;75.28
82293;BME280;71892;14.836;105.234;2023-07-30T07:53:53;98663.72;;;29.06;78.05
82293;BME280;71892;14.836;105.234;2023-07-30T07:56:19;98659.22;;;29.05;76.50
82293;BME280;71892;14.836;105.234;2023-07-30T07:58:46;98660.91;;;29.19;76.59
82293;BME280;71892;14.836;105.234;2023-07-30T08:01:12;98659.16;;;29.18;78.09
82293;BME280;71892;14.836;105.234;2023-07-30T08:03:38;98659.16;;;29.18;77.22
82293;BME280;71892;14.836;105.234;2023-07-30T08:06:05;98668.81;;;29.00;77.89
82293;BME280;71892;14.836;105.234;2023-07-30T08:08:32;98678.06;;;28.62;77.56
82293;BME280;71892;14.836;105.234;2023-07-30T08:10:58;98622.69;;;27.75;79.75
82293;BME280;71892;14.836;105.234;2023-07-30T08:13:30;98673.09;;;27.20;82.04
82293;BME280;71892;14.836;105.234;2023-07-30T08:15:56;98690.72;;;26.89;82.97
82293;BME280;71892;14.836;105.234;2023-07-30T08:18:23;98669.31;;;26.56;84.15
82293;BME280;71892;14.836;105.234;2023-07-30T08:20:50;98661.06;;;26.44;84.48
82293;BME280;71892;14.836;105.234;2023-07-30T08:23:16;98659.22;;;26.44;85.48
82293;BME280;71892;14.836;105.234;2023-07-30T08:25:42;98659.06;;;26.60;85.74
82293;BME280;71892;14.836;105.234;2023-07-30T08:28:09;98661.94;;;26.71;84.86
82293;BME280;71892;14.836;105.234;2023-07-30T08:30:36;98596.72;;;26.80;84.69
82293;BME280;71892;14.836;105.234;2023-07-30T08:33:02;98657.47;;;26.82;83.86
82293;BME280;71892;14.836;105.234;2023-07-30T08:35:29;98647.84;;;26.91;83.57
82293;BME280;71892;14.836;105.234;2023-07-30T08:37:55;98645.53;;;26.98;83.65
82293;BME280;71892;14.836;105.234;2023-07-30T08:40:22;98640.44;;;27.06;82.62
82293;BME280;71892;14.836;105.234;2023-07-30T08:42:52;98603.84;;;27.21;82.11
82293;BME280;71892;14.836;105.234;2023-07-30T08:45:19;98629.50;;;27.31;81.70
82293;BME280;71892;14.836;105.234;2023-07-30T08:47:46;98638.56;;;27.44;81.93
82293;BME280;71892;14.836;105.234;2023-07-30T08:50:13;98644.28;;;27.54;80.51
82293;BME280;71892;14.836;105.234;2023-07-30T08:52:41;98631.72;;;27.64;80.97
82293;BME280;71892;14.836;105.234;2023-07-30T08:55:08;98606.22;;;27.76;81.23
82293;BME280;71892;14.836;105.234;2023-07-30T08:57:35;98590.09;;;27.84;81.27
82293;BME280;71892;14.836;105.234;2023-07-30T09:00:07;98609.75;;;27.89;81.13
82293;BME280;71892;14.836;105.234;2023-07-30T09:02:38;98607.47;;;27.96;81.49
82293;BME280;71892;14.836;105.234;2023-07-30T09:05:06;98604.28;;;28.02;80.46
82293;BME280;71892;14.836;105.234;2023-07-30T09:07:32;98599.34;;;28.07;81.02
82293;BME280;71892;14.836;105.234;2023-07-30T09:09:59;98606.53;;;28.08;81.88
82293;BME280;71892;14.836;105.234;2023-07-30T09:12:32;98611.00;;;28.09;81.21
82293;BME280;71892;14.836;105.234;2023-07-30T09:14:59;98603.38;;;28.14;81.41
82293;BME280;71892;14.836;105.234;2023-07-30T09:17:26;98600.94;;;28.22;80.03
82293;BME280;71892;14.836;105.234;2023-07-30T09:19:53;98608.91;;;28.25;79.68
82293;BME280;71892;14.836;105.234;2023-07-30T09:22:30;98605.53;;;28.22;80.11
82293;BME280;71892;14.836;105.234;2023-07-30T09:25:01;98613.09;;;28.18;80.89
82293;BME280;71892;14.836;105.234;2023-07-30T09:27:29;98610.34;;;28.18;81.55
82293;BME280;71892;14.836;105.234;2023-07-30T09:29:56;98603.50;;;28.13;81.28
82293;BME280;71892;14.836;105.234;2023-07-30T09:32:27;98600.63;;;28.14;81.51
82293;BME280;71892;14.836;105.234;2023-07-30T09:34:54;98604.66;;;28.08;81.50
82293;BME280;71892;14.836;105.234;2023-07-30T09:37:21;98543.38;;;28.13;82.12
82293;BME280;71892;14.836;105.234;2023-07-30T09:39:48;98610.47;;;28.17;82.22
82293;BME280;71892;14.836;105.234;2023-07-30T09:42:14;98612.00;;;28.21;82.90
82293;BME280;71892;14.836;105.234;2023-07-30T09:44:41;98608.81;;;28.27;82.23
82293;BME280;71892;14.836;105.234;2023-07-30T09:47:10;98598.50;;;28.30;82.18
82293;BME280;71892;14.836;105.234;2023-07-30T09:49:37;98611.91;;;28.33;82.28
82293;BME280;71892;14.836;105.234;2023-07-30T09:52:07;98608.63;;;28.41;82.68
82293;BME280;71892;14.836;105.234;2023-07-30T09:54:33;98570.59;;;28.49;82.24
82293;BME280;71892;14.836;105.234;2023-07-30T09:57:00;98606.56;;;28.56;81.79
82293;BME280;71892;14.836;105.234;2023-07-30T09:59:27;98612.41;;;28.62;81.36
82293;BME280;71892;14.836;105.234;2023-07-30T10:01:53;98611.69;;;28.60;81.78
82293;BME280;71892;14.836;105.234;2023-07-30T10:04:22;98619.13;;;28.58;81.88
82293;BME280;71892;14.836;105.234;2023-07-30T10:07:04;98608.94;;;28.60;81.25
82293;BME280;71892;14.836;105.234;2023-07-30T10:09:40;98627.06;;;28.61;81.57
82293;BME280;71892;14.836;105.234;2023-07-30T10:12:22;98650.97;;;28.59;81.35
82293;BME280;71892;14.836;105.234;2023-07-30T10:14:50;98660.50;;;28.53;79.83
82293;BME280;71892;14.836;105.234;2023-07-30T10:17:17;98661.56;;;28.40;80.58
82293;BME280;71892;14.836;105.234;2023-07-30T10:19:48;98669.69;;;28.29;80.73
82293;BME280;71892;14.836;105.234;2023-07-30T10:25:00;98654.22;;;28.17;81.56
82293;BME280;71892;14.836;105.234;2023-07-30T10:27:35;98657.06;;;28.15;81.95
82293;BME280;71892;14.836;105.234;2023-07-30T10:30:13;98598.03;;;28.13;82.70
82293;BME280;71892;14.836;105.234;2023-07-30T10:35:39;98650.25;;;28.08;84.05
82293;BME280;71892;14.836;105.234;2023-07-30T10:38:22;98659.47;;;28.07;83.73
82293;BME280;71892;14.836;105.234;2023-07-30T10:41:10;98656.59;;;28.08;83.70
82293;BME280;71892;14.836;105.234;2023-07-30T10:43:48;98668.75;;;28.04;83.61
82293;BME280;71892;14.836;105.234;2023-07-30T10:46:17;98668.13;;;28.01;84.04
82293;BME280;71892;14.836;105.234;2023-07-30T10:48:45;98669.19;;;27.98;84.39
82293;BME280;71892;14.836;105.234;2023-07-30T10:51:14;98681.25;;;27.96;84.36
82293;BME280;71892;14.836;105.234;2023-07-30T10:53:45;98662.88;;;27.98;83.41
82293;BME280;71892;14.836;105.234;2023-07-30T10:56:13;98678.75;;;27.93;83.49
82293;BME280;71892;14.836;105.234;2023-07-30T10:58:39;98646.16;;;27.90;82.93
82293;BME280;71892;14.836;105.234;2023-07-30T11:01:07;98688.59;;;27.83;83.62
82293;BME280;71892;14.836;105.234;2023-07-30T11:03:34;98688.78;;;27.80;83.77
82293;BME280;71892;14.836;105.234;2023-07-30T11:06:02;98683.81;;;27.74;84.28
82293;BME280;71892;14.836;105.234;2023-07-30T11:08:39;98681.91;;;27.74;84.39
82293;BME280;71892;14.836;105.234;2023-07-30T11:11:07;98687.84;;;27.68;84.70
82293;BME280;71892;14.836;105.234;2023-07-30T11:13:42;98687.75;;;27.57;85.85
82293;BME280;71892;14.836;105.234;2023-07-30T11:16:10;98690.03;;;27.50;85.87
82293;BME280;71892;14.836;105.234;2023-07-30T11:18:37;98699.53;;;27.45;84.99
82293;BME280;71892;14.836;105.234;2023-07-30T11:21:05;98699.81;;;27.40;85.36
82293;BME280;71892;14.836;105.234;2023-07-30T11:23:32;98667.38;;;27.36;84.04
82293;BME280;71892;14.836;105.234;2023-07-30T11:26:01;98716.97;;;27.30;84.35
82293;BME280;71892;14.836;105.234;2023-07-30T11:28:36;98726.25;;;27.27;84.07
82293;BME280;71892;14.836;105.234;2023-07-30T11:31:08;98740.13;;;27.24;84.18
82293;BME280;71892;14.836;105.234;2023-07-30T11:33:46;98817.84;;;27.31;84.26
82293;BME280;71892;14.836;105.234;2023-07-30T11:36:17;98848.56;;;26.67;78.45
82293;BME280;71892;14.836;105.234;2023-07-30T11:38:45;98835.72;;;25.84;78.92
82293;BME280;71892;14.836;105.234;2023-07-30T11:47:07;98884.88;;;24.43;85.71
82293;BME280;71892;14.836;105.234;2023-07-30T11:49:35;98896.94;;;24.37;86.10
82293;BME280;71892;14.836;105.234;2023-07-30T11:52:11;98888.50;;;24.26;85.99
82293;BME280;71892;14.836;105.234;2023-07-30T11:54:38;98922.72;;;24.13;86.81
82293;BME280;71892;14.836;105.234;2023-07-30T11:57:04;98929.19;;;24.10;87.44
82293;BME280;71892;14.836;105.234;2023-07-30T11:59:31;98939.19;;;24.10;87.50
82293;BME280;71892;14.836;105.234;2023-07-30T12:01:58;98943.81;;;24.08;88.21
82293;BME280;71892;14.836;105.234;2023-07-30T12:04:25;98948.34;;;24.07;87.45
82293;BME280;71892;14.836;105.234;2023-07-30T12:06:56;98963.75;;;24.07;88.00
82293;BME280;71892;14.836;105.234;2023-07-30T12:09:24;98970.00;;;24.09;87.84
82293;BME280;71892;14.836;105.234;2023-07-30T12:11:56;98978.66;;;24.00;88.13
82293;BME280;71892;14.836;105.234;2023-07-30T12:16:57;98993.16;;;23.99;88.19
82293;BME280;71892;14.836;105.234;2023-07-30T12:19:23;99008.41;;;24.01;88.56
82293;BME280;71892;14.836;105.234;2023-07-30T12:21:50;98994.94;;;24.00;88.45
82293;BME280;71892;14.836;105.234;2023-07-30T12:24:16;99014.09;;;23.97;88.47
82293;BME280;71892;14.836;105.234;2023-07-30T12:26:43;99030.13;;;24.01;88.65
82293;BME280;71892;14.836;105.234;2023-07-30T12:29:09;99030.25;;;24.00;88.54
82293;BME280;71892;14.836;105.234;2023-07-30T12:31:35;99039.28;;;24.00;88.34
82293;BME280;71892;14.836;105.234;2023-07-30T12:34:02;99042.69;;;24.04;88.48
82293;BME280;71892;14.836;105.234;2023-07-30T12:36:29;99032.53;;;24.07;87.92
82293;BME280;71892;14.836;105.234;2023-07-30T12:38:55;99038.28;;;24.01;88.44
82293;BME280;71892;14.836;105.234;2023-07-30T12:41:22;99002.19;;;23.99;88.77
82293;BME280;71892;14.836;105.234;2023-07-30T12:43:53;99025.59;;;24.02;88.77
82293;BME280;71892;14.836;105.234;2023-07-30T12:46:20;99016.56;;;24.01;88.59
82293;BME280;71892;14.836;105.234;2023-07-30T12:48:46;99010.19;;;24.02;89.08
82293;BME280;71892;14.836;105.234;2023-07-30T12:51:13;99019.38;;;24.00;88.87
82293;BME280;71892;14.836;105.234;2023-07-30T12:53:39;99030.00;;;24.04;89.63
82293;BME280;71892;14.836;105.234;2023-07-30T12:56:06;99024.31;;;24.09;88.78
82293;BME280;71892;14.836;105.234;2023-07-30T12:58:32;99036.16;;;24.08;89.03
82293;BME280;71892;14.836;105.234;2023-07-30T13:00:59;99037.44;;;24.01;88.94
82293;BME280;71892;14.836;105.234;2023-07-30T13:03:25;99032.53;;;24.07;89.73
82293;BME280;71892;14.836;105.234;2023-07-30T13:05:52;99036.94;;;24.10;89.56
82293;BME280;71892;14.836;105.234;2023-07-30T13:08:18;99030.25;;;24.17;89.14
82293;BME280;71892;14.836;105.234;2023-07-30T13:10:44;99035.69;;;24.17;88.78
82293;BME280;71892;14.836;105.234;2023-07-30T13:13:11;99041.25;;;24.14;88.51
82293;BME280;71892;14.836;105.234;2023-07-30T13:15:37;99043.78;;;24.18;88.15
82293;BME280;71892;14.836;105.234;2023-07-30T13:18:04;99043.69;;;24.20;88.31
82293;BME280;71892;14.836;105.234;2023-07-30T13:20:30;99048.31;;;24.18;88.22
82293;BME280;71892;14.836;105.234;2023-07-30T13:22:58;99050.38;;;24.13;88.48
82293;BME280;71892;14.836;105.234;2023-07-30T13:25:24;99040.56;;;24.10;88.75
82293;BME280;71892;14.836;105.234;2023-07-30T13:27:50;99046.56;;;24.17;88.86
82293;BME280;71892;14.836;105.234;2023-07-30T13:30:17;99039.16;;;24.20;88.11
82293;BME280;71892;14.836;105.234;2023-07-30T13:32:43;99041.94;;;24.19;87.78
82293;BME280;71892;14.836;105.234;2023-07-30T13:35:10;99042.03;;;24.16;87.74
82293;BME280;71892;14.836;105.234;2023-07-30T13:37:36;99044.59;;;24.20;88.23
82293;BME280;71892;14.836;105.234;2023-07-30T13:40:03;99050.97;;;24.19;87.84
82293;BME280;71892;14.836;105.234;2023-07-30T13:42:29;99035.56;;;24.20;86.98
82293;BME280;71892;14.836;105.234;2023-07-30T13:44:56;99058.59;;;24.11;87.17
82293;BME280;71892;14.836;105.234;2023-07-30T13:47:22;99065.78;;;24.12;87.38
82293;BME280;71892;14.836;105.234;2023-07-30T13:49:49;99070.31;;;24.12;86.58
82293;BME280;71892;14.836;105.234;2023-07-30T13:52:15;99093.81;;;24.13;86.92
82293;BME280;71892;14.836;105.234;2023-07-30T13:54:42;99082.78;;;24.16;86.70
82293;BME280;71892;14.836;105.234;2023-07-30T13:57:11;99082.06;;;24.12;87.12
82293;BME280;71892;14.836;105.234;2023-07-30T13:59:37;99086.63;;;24.12;87.04
82293;BME280;71892;14.836;105.234;2023-07-30T14:02:05;99080.91;;;24.18;87.05
82293;BME280;71892;14.836;105.234;2023-07-30T14:04:32;99080.16;;;24.14;86.84
82293;BME280;71892;14.836;105.234;2023-07-30T14:06:58;99082.97;;;24.13;87.51
82293;BME280;71892;14.836;105.234;2023-07-30T14:09:25;99080.03;;;24.17;87.60
82293;BME280;71892;14.836;105.234;2023-07-30T14:11:58;99088.13;;;24.19;87.72
82293;BME280;71892;14.836;105.234;2023-07-30T14:14:25;99094.44;;;24.19;87.39
82293;BME280;71892;14.836;105.234;2023-07-30T14:16:53;99102.59;;;24.19;87.42
82293;BME280;71892;14.836;105.234;2023-07-30T14:19:20;99108.09;;;24.18;88.75
82293;BME280;71892;14.836;105.234;2023-07-30T14:21:47;99115.22;;;24.20;87.53
82293;BME280;71892;14.836;105.234;2023-07-30T14:24:13;99120.53;;;24.22;87.97
82293;BME280;71892;14.836;105.234;2023-07-30T14:26:39;99125.84;;;24.25;88.33
82293;BME280;71892;14.836;105.234;2023-07-30T14:29:06;99039.75;;;24.25;87.68
82293;BME280;71892;14.836;105.234;2023-07-30T14:31:32;99138.38;;;24.28;87.99
82293;BME280;71892;14.836;105.234;2023-07-30T14:33:59;99144.53;;;24.31;88.30
82293;BME280;71892;14.836;105.234;2023-07-30T14:36:25;99151.72;;;24.32;89.14
82293;BME280;71892;14.836;105.234;2023-07-30T14:38:52;99153.31;;;24.36;87.55
82293;BME280;71892;14.836;105.234;2023-07-30T14:41:18;99170.91;;;24.46;87.46
82293;BME280;71892;14.836;105.234;2023-07-30T14:43:44;99128.56;;;24.42;86.94
82293;BME280;71892;14.836;105.234;2023-07-30T14:46:11;99174.03;;;24.39;87.13
82293;BME280;71892;14.836;105.234;2023-07-30T14:48:42;99180.66;;;24.33;87.38
82293;BME280;71892;14.836;105.234;2023-07-30T14:51:09;99181.63;;;24.32;88.19
82293;BME280;71892;14.836;105.234;2023-07-30T14:53:36;99184.91;;;24.39;88.26
82293;BME280;71892;14.836;105.234;2023-07-30T14:56:03;99168.50;;;24.40;87.48
82293;BME280;71892;14.836;105.234;2023-07-30T14:58:29;99190.41;;;24.37;88.39
82293;BME280;71892;14.836;105.234;2023-07-30T15:00:56;99186.88;;;24.35;88.23
82293;BME280;71892;14.836;105.234;2023-07-30T15:03:22;99195.84;;;24.37;88.23
82293;BME280;71892;14.836;105.234;2023-07-30T15:05:50;99193.94;;;24.39;88.39
82293;BME280;71892;14.836;105.234;2023-07-30T15:08:16;99201.13;;;24.40;88.56
82293;BME280;71892;14.836;105.234;2023-07-30T15:10:43;99191.13;;;24.41;88.45
82293;BME280;71892;14.836;105.234;2023-07-30T15:13:09;99195.25;;;24.49;88.95
82293;BME280;71892;14.836;105.234;2023-07-30T15:15:36;99202.41;;;24.50;88.16
82293;BME280;71892;14.836;105.234;2023-07-30T15:18:02;99204.34;;;24.48;88.60
82293;BME280;71892;14.836;105.234;2023-07-30T15:20:31;99198.75;;;24.51;88.53
82293;BME280;71892;14.836;105.234;2023-07-30T15:22:57;99205.94;;;24.52;88.43
82293;BME280;71892;14.836;105.234;2023-07-30T15:25:25;99198.75;;;24.51;88.78
82293;BME280;71892;14.836;105.234;2023-07-30T15:27:51;99202.34;;;24.52;88.44
82293;BME280;71892;14.836;105.234;2023-07-30T15:30:17;99204.09;;;24.53;88.51
82293;BME280;71892;14.836;105.234;2023-07-30T15:32:44;99207.78;;;24.52;88.84
82293;BME280;71892;14.836;105.234;2023-07-30T15:35:11;99214.97;;;24.53;89.04
82293;BME280;71892;14.836;105.234;2023-07-30T15:37:38;99214.75;;;24.57;89.33
82293;BME280;71892;14.836;105.234;2023-07-30T15:40:05;99222.72;;;24.60;89.24
82293;BME280;71892;14.836;105.234;2023-07-30T15:42:31;99220.81;;;24.62;88.62
82293;BME280;71892;14.836;105.234;2023-07-30T15:44:58;99226.25;;;24.62;89.14
82293;BME280;71892;14.836;105.234;2023-07-30T15:47:25;99224.34;;;24.64;89.25
82293;BME280;71892;14.836;105.234;2023-07-30T15:49:51;99228.81;;;24.65;89.30
82293;BME280;71892;14.836;105.234;2023-07-30T15:52:18;99222.59;;;24.63;89.58
82293;BME280;71892;14.836;105.234;2023-07-30T15:54:44;99226.09;;;24.65;89.24
82293;BME280;71892;14.836;105.234;2023-07-30T15:57:11;99230.50;;;24.68;88.98
82293;BME280;71892;14.836;105.234;2023-07-30T15:59:49;99232.41;;;24.66;89.13
82293;BME280;71892;14.836;105.234;2023-07-30T16:02:16;99226.03;;;24.67;89.20
82293;BME280;71892;14.836;105.234;2023-07-30T16:04:43;99225.97;;;24.68;88.79
82293;BME280;71892;14.836;105.234;2023-07-30T16:07:10;99226.19;;;24.64;88.58
82293;BME280;71892;14.836;105.234;2023-07-30T16:09:38;99228.97;;;24.62;89.13
82293;BME280;71892;14.836;105.234;2023-07-30T16:12:05;99220.75;;;24.64;89.16
82293;BME280;71892;14.836;105.234;2023-07-30T16:14:32;99234.41;;;24.62;89.26
82293;BME280;71892;14.836;105.234;2023-07-30T16:16:58;99238.97;;;24.62;88.84
82293;BME280;71892;14.836;105.234;2023-07-30T16:19:24;99237.28;;;24.59;88.87
82293;BME280;71892;14.836;105.234;2023-07-30T16:21:51;99227.38;;;24.58;88.77
82293;BME280;71892;14.836;105.234;2023-07-30T16:24:18;99232.81;;;24.58;89.00
82293;BME280;71892;14.836;105.234;2023-07-30T16:26:45;99240.88;;;24.60;89.20
82293;BME280;71892;14.836;105.234;2023-07-30T16:29:11;99241.75;;;24.60;88.53
82293;BME280;71892;14.836;105.234;2023-07-30T16:31:37;99230.00;;;24.60;88.61
82293;BME280;71892;14.836;105.234;2023-07-30T16:34:04;99222.25;;;24.52;88.53
82293;BME280;71892;14.836;105.234;2023-07-30T16:36:31;99199.63;;;24.52;89.17
82293;BME280;71892;14.836;105.234;2023-07-30T16:38:57;99218.72;;;24.50;89.34
82293;BME280;71892;14.836;105.234;2023-07-30T16:41:24;99208.66;;;24.52;89.11
82293;BME280;71892;14.836;105.234;2023-07-30T16:43:50;99207.84;;;24.50;88.85
82293;BME280;71892;14.836;105.234;2023-07-30T16:46:16;99210.81;;;24.46;89.33
82293;BME280;71892;14.836;105.234;2023-07-30T16:48:43;99198.25;;;24.43;88.62
82293;BME280;71892;14.836;105.234;2023-07-30T16:51:09;99200.97;;;24.43;89.24
82293;BME280;71892;14.836;105.234;2023-07-30T16:53:36;99195.03;;;24.35;89.63
82293;BME280;71892;14.836;105.234;2023-07-30T16:56:11;99194.19;;;24.35;89.07
82293;BME280;71892;14.836;105.234;2023-07-30T16:58:37;99190.34;;;24.39;89.72
82293;BME280;71892;14.836;105.234;2023-07-30T17:01:04;99184.81;;;24.40;89.31
82293;BME280;71892;14.836;105.234;2023-07-30T17:03:32;99193.78;;;24.42;89.60
82293;BME280;71892;14.836;105.234;2023-07-30T17:05:59;99185.47;;;24.45;89.21
82293;BME280;71892;14.836;105.234;2023-07-30T17:08:26;99178.94;;;24.49;89.24
82293;BME280;71892;14.836;105.234;2023-07-30T17:10:53;99121.75;;;24.51;88.74
82293;BME280;71892;14.836;105.234;2023-07-30T17:13:21;99175.34;;;24.49;88.65
82293;BME280;71892;14.836;105.234;2023-07-30T17:15:47;99175.41;;;24.47;88.72
82293;BME280;71892;14.836;105.234;2023-07-30T17:18:14;99142.84;;;24.46;88.52
82293;BME280;71892;14.836;105.234;2023-07-30T17:20:55;99173.63;;;24.46;88.74
82293;BME280;71892;14.836;105.234;2023-07-30T17:23:23;99177.31;;;24.45;88.81
82293;BME280;71892;14.836;105.234;2023-07-30T17:25:53;99167.31;;;24.46;88.99
82293;BME280;71892;14.836;105.234;2023-07-30T17:28:20;99171.88;;;24.45;89.06
82293;BME280;71892;14.836;105.234;2023-07-30T17:30:46;99160.28;;;24.42;89.02
82293;BME280;71892;14.836;105.234;2023-07-30T17:33:13;99155.56;;;24.45;89.52
82293;BME280;71892;14.836;105.234;2023-07-30T17:35:39;99153.84;;;24.44;89.16
82293;BME280;71892;14.836;105.234;2023-07-30T17:38:05;99152.84;;;24.45;89.12
82293;BME280;71892;14.836;105.234;2023-07-30T17:40:32;99149.09;;;24.48;89.31
82293;BME280;71892;14.836;105.234;2023-07-30T17:42:59;99154.47;;;24.49;89.28
82293;BME280;71892;14.836;105.234;2023-07-30T17:45:25;99150.06;;;24.47;88.86
82293;BME280;71892;14.836;105.234;2023-07-30T17:47:52;99143.66;;;24.48;88.76
82293;BME280;71892;14.836;105.234;2023-07-30T17:50:18;99144.69;;;24.45;87.90
82293;BME280;71892;14.836;105.234;2023-07-30T17:52:45;99142.22;;;24.41;88.53